Main page
METAR-TAF:

METAR-TAF

Airports :

Moroni, Comoros

Prince Said Ibrahim International Airport

latitude: 11-32S, longitude: 043-16E, elevation: 29 m

Current weather observation

The report was made 15 minutes ago, at 16:00 UTC
Wind 3 kt from the East/Southeast, varying between East and South/Southeast
Temperature 27°C
Humidity 74%
Pressure 1013 hPa
Visibility 10 km or more
Scattered clouds at a height of 2500 ft

METAR: FMCH 251600Z 11003KT 080V150 9999 SCT025 27/22 Q1013 NOSIG

Time: 19:15 (16:15 UTC)

Forecast

The report was made 5 hours and 15 minutes ago, at 11:00 UTC
Forecast valid from 25 at 12 UTC to 26 at 18 UTC
Wind 12 kt from the South/Southwest
Visibility 10 km or more
Few clouds at a height of 2000 ft
Becoming
from 25 at 16 UTC to 25 at 18 UTC
Wind 3 kt from the East
Becoming
from 26 at 04 UTC to 26 at 06 UTC
Wind 10 kt from the South

TAF: FMCH 251100Z 2512/2618 20012KT 9999 FEW020 BECMG 2516/2518 10003KT BECMG 2604/2606 19010KT

Weather observations and forecasts of more than 4000 airports (METAR and TAF reports).

The available stations are represented by yellow and red dots on the map.

Hover mouse over dot to see the name of the station.

Then click to see weather observations and forecasts.

To change the map : click on the green buttons with a black cross to zoom in, on the green button with a dash to zoom out, or on the green arrows for adjacent maps.


METAR-TAF: